Flight Track Log - Related Links

Times and Time Zones

All times are in EDT time to prevent confusion due to time zone crossing. See the N61544 flight status page for this flight to view local times or setup timezone preferences in your user account.

Time Position Orientation Groundspeed Altitude Reporting Facility
EDT Latitude Longitude Course Direction KTS MPH feet Rate Location/Type
Mon 06:31:38 AM 42.7833 -88.3833 173° South 75 86 3,700  Level KMKE
Mon 06:33:00 AM 42.7409 -88.3763 173° South  Level FlightAware Approximate
Mon 06:40:00 AM 42.5048 -88.3506 175° South  Level FlightAware Approximate
Mon 06:41:00 AM 42.4711 -88.3500 180° South  Level FlightAware Approximate
Mon 06:42:00 AM 42.4373 -88.3500 180° South  Level FlightAware Approximate
Mon 06:43:00 AM 42.4036 -88.3500 180° South  Level FlightAware Approximate
Mon 06:44:00 AM 42.3698 -88.3500 180° South  Level FlightAware Approximate
Mon 06:45:00 AM 42.3361 -88.3500 180° South  Level FlightAware Approximate
Mon 06:46:00 AM 42.3023 -88.3500 180° South  Level FlightAware Approximate
Mon 06:47:00 AM 42.2685 -88.3500 180° South  Level FlightAware Approximate
Mon 06:48:00 AM 42.2348 -88.3500 180° South  Level FlightAware Approximate
Mon 06:49:00 AM 42.2010 -88.3500 180° South  Level FlightAware Approximate
Mon 06:50:00 AM 42.1673 -88.3500 180° South  Level FlightAware Approximate
Mon 06:51:00 AM 42.1335 -88.3500 180° South  Level FlightAware Approximate
Mon 06:52:00 AM 42.0997 -88.3500 180° South  Level FlightAware Approximate
Mon 06:53:00 AM 42.0660 -88.3500 180° South  Level FlightAware Approximate
Mon 06:54:00 AM 42.0322 -88.3500 180° South  Level FlightAware Approximate
Mon 06:55:00 AM 41.9985 -88.3500 180° South  Level FlightAware Approximate
Mon 06:56:00 AM 41.9647 -88.3500 180° South  Level FlightAware Approximate
Mon 06:57:00 AM 41.9309 -88.3500 180° South  Level FlightAware Approximate
Mon 06:58:00 AM 41.8972 -88.3500 180° South  Level FlightAware Approximate
Mon 06:59:00 AM 41.8723 -88.3279 124° Southeast  Level FlightAware Approximate
Mon 07:00:00 AM 41.8534 -88.2903 124° Southeast  Level FlightAware Approximate
Mon 07:01:00 AM 41.8345 -88.2527 124° Southeast  Level FlightAware Approximate
Mon 07:02:00 AM 41.8157 -88.2152 124° Southeast  Level FlightAware Approximate
Mon 07:03:00 AM 41.7968 -88.1777 124° Southeast  Level FlightAware Approximate
Mon 07:04:00 AM 41.7779 -88.1402 124° Southeast  Level FlightAware Approximate
Mon 07:05:00 AM 41.7589 -88.1027 124° Southeast  Level FlightAware Approximate
Mon 07:06:00 AM 41.7400 -88.0652 124° Southeast  Level FlightAware Approximate
Mon 07:07:00 AM 41.7211 -88.0278 124° Southeast  Level FlightAware Approximate
Mon 07:08:00 AM 41.7021 -87.9904 124° Southeast  Level FlightAware Approximate
Mon 07:09:00 AM 41.6832 -87.9530 124° Southeast  Level FlightAware Approximate
Mon 07:10:00 AM 41.6642 -87.9156 124° Southeast  Level FlightAware Approximate
Mon 07:11:00 AM 41.6452 -87.8782 124° Southeast  Level FlightAware Approximate
Mon 07:12:00 AM 41.6262 -87.8409 124° Southeast  Level FlightAware Approximate
Mon 07:13:00 AM 41.6072 -87.8036 124° Southeast  Level FlightAware Approximate
Mon 07:14:00 AM 41.5882 -87.7663 124° Southeast  Level FlightAware Approximate
Mon 07:15:00 AM 41.5691 -87.7291 124° Southeast  Level FlightAware Approximate
Mon 07:16:00 AM 41.5501 -87.6918 124° Southeast  Level FlightAware Approximate
Mon 07:17:00 AM 41.5310 -87.6546 124° Southeast  Level FlightAware Approximate
Mon 07:18:00 AM 41.5119 -87.6174 124° Southeast  Level FlightAware Approximate
Mon 07:19:00 AM 41.4929 -87.5802 124° Southeast  Level FlightAware Approximate
Mon 07:20:00 AM 41.4738 -87.5431 124° Southeast  Level FlightAware Approximate
Mon 07:21:00 AM 41.4546 -87.5059 124° Southeast  Level FlightAware Approximate
Mon 07:22:00 AM 41.4355 -87.4688 124° Southeast  Level FlightAware Approximate
Mon 07:23:00 AM 41.4164 -87.4317 125° Southeast  Level FlightAware Approximate
Mon 07:24:00 AM 41.3971 -87.3948 127° Southeast  Level FlightAware Approximate
Mon 07:25:00 AM 41.3769 -87.3588 127° Southeast  Level FlightAware Approximate
Mon 07:26:00 AM 41.3567 -87.3228 127° Southeast  Level FlightAware Approximate
Mon 07:27:00 AM 41.3365 -87.2868 127° Southeast  Level FlightAware Approximate
Mon 07:28:00 AM 41.3162 -87.2508 127° Southeast  Level FlightAware Approximate
Mon 07:29:00 AM 41.2960 -87.2148 127° Southeast  Level FlightAware Approximate
Mon 07:30:00 AM 41.2757 -87.1789 127° Southeast  Level FlightAware Approximate
Mon 07:31:00 AM 41.2555 -87.1430 127° Southeast  Level FlightAware Approximate
Mon 07:32:00 AM 41.2358 -87.1065 125° Southeast  Level FlightAware Approximate
Mon 07:33:00 AM 41.2164 -87.0697 125° Southeast  Level FlightAware Approximate
Mon 07:34:00 AM 41.1970 -87.0330 125° Southeast  Level FlightAware Approximate
Mon 07:35:00 AM 41.1776 -86.9963 125° Southeast  Level FlightAware Approximate
Mon 07:36:00 AM 41.1582 -86.9596 125° Southeast  Level FlightAware Approximate
Mon 07:37:00 AM 41.1388 -86.9230 125° Southeast  Level FlightAware Approximate
Mon 07:38:00 AM 41.1193 -86.8864 125° Southeast  Level FlightAware Approximate
Mon 07:39:00 AM 41.0999 -86.8497 126° Southeast  Level FlightAware Approximate
Mon 07:40:00 AM 41.0799 -86.8136 126° Southeast  Level FlightAware Approximate
Mon 07:41:00 AM 41.0600 -86.7775 126° Southeast  Level FlightAware Approximate
Mon 07:42:00 AM 41.0401 -86.7413 126° Southeast  Level FlightAware Approximate
Mon 07:43:00 AM 41.0201 -86.7053 126° Southeast  Level FlightAware Approximate
Mon 07:44:00 AM 41.0001 -86.6692 126° Southeast  Level FlightAware Approximate
Mon 07:45:00 AM 40.9802 -86.6331 126° Southeast  Level FlightAware Approximate
Mon 07:46:00 AM 40.9602 -86.5971 126° Southeast  Level FlightAware Approximate
Mon 07:47:00 AM 40.9402 -86.5611 126° Southeast  Level FlightAware Approximate
Mon 07:48:00 AM 40.9202 -86.5251 126° Southeast  Level FlightAware Approximate
Mon 07:49:00 AM 40.9001 -86.4892 126° Southeast  Level FlightAware Approximate
Mon 07:50:00 AM 40.8801 -86.4532 126° Southeast  Level FlightAware Approximate
Mon 07:51:00 AM 40.8601 -86.4173 126° Southeast  Level FlightAware Approximate
Mon 07:52:00 AM 40.8400 -86.3814 126° Southeast  Level FlightAware Approximate
Mon 07:53:00 AM 40.8199 -86.3456 126° Southeast  Level FlightAware Approximate
Mon 07:54:00 AM 40.7999 -86.3097 126° Southeast  Level FlightAware Approximate
Mon 07:55:00 AM 40.7798 -86.2739 127° Southeast  Level FlightAware Approximate
Mon 07:56:00 AM 40.7597 -86.2381 127° Southeast  Level FlightAware Approximate
Mon 07:57:00 AM 40.7396 -86.2023 127° Southeast  Level FlightAware Approximate
Mon 07:58:00 AM 40.7194 -86.1665 127° Southeast  Level FlightAware Approximate
Mon 07:59:00 AM 40.6993 -86.1308 127° Southeast  Level FlightAware Approximate
Mon 08:00:00 AM 40.6792 -86.0951 127° Southeast  Level FlightAware Approximate
Mon 08:01:00 AM 40.6590 -86.0594 127° Southeast  Level FlightAware Approximate
Mon 08:02:00 AM 40.6388 -86.0237 127° Southeast  Level FlightAware Approximate
Mon 08:03:00 AM 40.6186 -85.9880 127° Southeast  Level FlightAware Approximate
Mon 08:04:00 AM 40.5985 -85.9524 127° Southeast  Level FlightAware Approximate
Mon 08:05:00 AM 40.5783 -85.9168 127° Southeast  Level FlightAware Approximate
Mon 08:06:00 AM 40.5580 -85.8812 127° Southeast  Level FlightAware Approximate
Mon 08:07:00 AM 40.5378 -85.8456 127° Southeast  Level FlightAware Approximate
Mon 08:08:00 AM 40.5176 -85.8101 127° Southeast  Level FlightAware Approximate
Mon 08:09:00 AM 40.4974 -85.7745 127° Southeast  Level FlightAware Approximate
Mon 08:10:00 AM 40.4771 -85.7390 127° Southeast  Level FlightAware Approximate
Mon 08:11:00 AM 40.4568 -85.7036 127° Southeast  Level FlightAware Approximate
Mon 08:12:00 AM 40.4366 -85.6681 127° Southeast  Level FlightAware Approximate
Mon 08:13:00 AM 40.4163 -85.6327 125° Southeast  Level FlightAware Approximate
Mon 08:14:00 AM 40.3970 -85.5963 125° Southeast  Level FlightAware Approximate
Mon 08:15:00 AM 40.3778 -85.5599 125° Southeast  Level FlightAware Approximate
Mon 08:16:00 AM 40.3585 -85.5235 125° Southeast  Level FlightAware Approximate
Mon 08:17:00 AM 40.3392 -85.4872 125° Southeast  Level FlightAware Approximate
Mon 08:18:00 AM 40.3199 -85.4509 125° Southeast  Level FlightAware Approximate
Mon 08:19:00 AM 40.3005 -85.4146 125° Southeast  Level FlightAware Approximate
Mon 08:20:00 AM 40.2812 -85.3783 125° Southeast  Level FlightAware Approximate
Mon 08:21:00 AM 40.2618 -85.3421 125° Southeast  Level FlightAware Approximate
Mon 08:22:00 AM 40.2425 -85.3058 125° Southeast  Level FlightAware Approximate
Mon 08:23:00 AM 40.2231 -85.2696 125° Southeast  Level FlightAware Approximate
Mon 08:24:00 AM 40.2037 -85.2334 125° Southeast  Level FlightAware Approximate
Mon 08:25:00 AM 40.1843 -85.1973 125° Southeast  Level FlightAware Approximate
Mon 08:26:00 AM 40.1649 -85.1611 125° Southeast  Level FlightAware Approximate
Mon 08:27:00 AM 40.1453 -85.1252 127° Southeast  Level FlightAware Approximate
Mon 08:28:00 AM 40.1250 -85.0900 127° Southeast  Level FlightAware Approximate
Mon 08:29:00 AM 40.1046 -85.0548 127° Southeast  Level FlightAware Approximate
Mon 08:30:00 AM 40.0842 -85.0196 127° Southeast  Level FlightAware Approximate
Mon 08:31:00 AM 40.0638 -84.9844 127° Southeast  Level FlightAware Approximate
Mon 08:32:00 AM 40.0434 -84.9493 127° Southeast  Level FlightAware Approximate
Mon 08:33:00 AM 40.0230 -84.9142 127° Southeast  Level FlightAware Approximate
Mon 08:34:00 AM 40.0026 -84.8791 127° Southeast  Level FlightAware Approximate
Mon 08:35:00 AM 39.9822 -84.8440 127° Southeast  Level FlightAware Approximate
Mon 08:36:00 AM 39.9618 -84.8089 127° Southeast  Level FlightAware Approximate
Mon 08:37:00 AM 39.9413 -84.7739 127° Southeast  Level FlightAware Approximate
Mon 08:38:00 AM 39.9209 -84.7389 127° Southeast  Level FlightAware Approximate
Mon 08:39:00 AM 39.9004 -84.7039 127° Southeast  Level FlightAware Approximate
Mon 08:40:00 AM 39.8799 -84.6689 127° Southeast  Level FlightAware Approximate
Mon 08:41:00 AM 39.8594 -84.6340 127° Southeast  Level FlightAware Approximate
Mon 08:42:00 AM 39.8389 -84.5990 127° Southeast  Level FlightAware Approximate
Mon 08:43:00 AM 39.8184 -84.5641 127° Southeast  Level FlightAware Approximate
Mon 08:44:00 AM 39.7979 -84.5292 127° Southeast  Level FlightAware Approximate
Mon 08:45:00 AM 39.7774 -84.4944 127° Southeast  Level FlightAware Approximate
Mon 08:46:00 AM 39.7568 -84.4595 127° Southeast  Level FlightAware Approximate
Mon 08:47:00 AM 39.7363 -84.4247 127° Southeast  Level FlightAware Approximate
Mon 08:48:00 AM 39.7157 -84.3899 128° Southeast  Level FlightAware Approximate
Mon 08:49:00 AM 39.6951 -84.3551 128° Southeast  Level FlightAware Approximate
Mon 08:50:00 AM 39.6746 -84.3203 128° Southeast  Level FlightAware Approximate
Mon 08:51:00 AM 39.6540 -84.2856 128° Southeast  Level FlightAware Approximate
Mon 08:52:00 AM 39.6334 -84.2509 128° Southeast  Level FlightAware Approximate
Mon 08:53:00 AM 39.6128 -84.2162 128° Southeast  Level FlightAware Approximate
Mon 08:54:00 AM 39.5921 -84.1815 128° Southeast  Level FlightAware Approximate
Mon 08:55:00 AM 39.5715 -84.1468 128° Southeast  Level FlightAware Approximate
Mon 08:56:00 AM 39.5509 -84.1122 128° Southeast  Level FlightAware Approximate
Mon 08:57:00 AM 39.5302 -84.0776 128° Southeast  Level FlightAware Approximate
Mon 08:58:00 AM 39.5095 -84.0430 128° Southeast  Level FlightAware Approximate
Mon 08:59:00 AM 39.4889 -84.0084 128° Southeast  Level FlightAware Approximate
Mon 09:00:00 AM 39.4682 -83.9738 128° Southeast  Level FlightAware Approximate
Mon 09:01:00 AM 39.4475 -83.9393 128° Southeast  Level FlightAware Approximate
Mon 09:02:00 AM 39.4268 -83.9048 128° Southeast  Level FlightAware Approximate
Mon 09:03:00 AM 39.4061 -83.8703 128° Southeast  Level FlightAware Approximate
Mon 09:04:00 AM 39.3853 -83.8358 128° Southeast  Level FlightAware Approximate
Mon 09:05:00 AM 39.3646 -83.8013 128° Southeast  Level FlightAware Approximate
Mon 09:06:00 AM 39.3438 -83.7669 128° Southeast  Level FlightAware Approximate
Mon 09:07:00 AM 39.3231 -83.7325 128° Southeast  Level FlightAware Approximate
Mon 09:08:00 AM 39.3023 -83.6981 128° Southeast  Level FlightAware Approximate
Mon 09:09:00 AM 39.2817 -83.6635 123° Southeast  Level FlightAware Approximate
Mon 09:10:00 AM 39.2634 -83.6269 123° Southeast  Level FlightAware Approximate
Mon 09:11:00 AM 39.2445 -83.5908 128° Southeast  Level FlightAware Approximate
Mon 09:12:00 AM 39.2240 -83.5562 128° Southeast  Level FlightAware Approximate
Mon 09:13:00 AM 39.2034 -83.5217 128° Southeast  Level FlightAware Approximate
Mon 09:14:00 AM 39.1828 -83.4872 128° Southeast  Level FlightAware Approximate
Mon 09:15:00 AM 39.1622 -83.4527 128° Southeast  Level FlightAware Approximate
Mon 09:16:00 AM 39.1416 -83.4182 128° Southeast  Level FlightAware Approximate
Mon 09:17:00 AM 39.1210 -83.3837 128° Southeast  Level FlightAware Approximate
Mon 09:18:00 AM 39.1004 -83.3493 128° Southeast  Level FlightAware Approximate
Mon 09:19:00 AM 39.0797 -83.3149 128° Southeast  Level FlightAware Approximate
Mon 09:20:00 AM 39.0591 -83.2805 128° Southeast  Level FlightAware Approximate
Mon 09:21:00 AM 39.0384 -83.2461 128° Southeast  Level FlightAware Approximate
Mon 09:22:00 AM 39.0177 -83.2117 128° Southeast  Level FlightAware Approximate
Mon 09:23:00 AM 38.9971 -83.1774 128° Southeast  Level FlightAware Approximate
Mon 09:24:00 AM 38.9764 -83.1431 128° Southeast  Level FlightAware Approximate
Mon 09:25:00 AM 38.9557 -83.1088 128° Southeast  Level FlightAware Approximate
Mon 09:26:00 AM 38.9350 -83.0745 128° Southeast  Level FlightAware Approximate
Mon 09:27:00 AM 38.9143 -83.0402 128° Southeast  Level FlightAware Approximate
Mon 09:28:00 AM 38.8934 -83.0062 129° Southeast  Level FlightAware Approximate
Mon 09:29:00 AM 38.8721 -82.9726 129° Southeast  Level FlightAware Approximate
Mon 09:30:00 AM 38.8508 -82.9390 129° Southeast  Level FlightAware Approximate
Mon 09:31:00 AM 38.8295 -82.9054 129° Southeast  Level FlightAware Approximate
Mon 09:32:00 AM 38.8081 -82.8718 129° Southeast  Level FlightAware Approximate
Mon 09:33:00 AM 38.7868 -82.8382 129° Southeast  Level FlightAware Approximate
Mon 09:34:00 AM 38.7654 -82.8047 129° Southeast  Level FlightAware Approximate
Mon 09:35:00 AM 38.7441 -82.7712 129° Southeast  Level FlightAware Approximate
Mon 09:36:00 AM 38.7227 -82.7377 129° Southeast  Level FlightAware Approximate
Mon 09:37:00 AM 38.7013 -82.7042 129° Southeast  Level FlightAware Approximate
Mon 09:38:00 AM 38.6799 -82.6707 129° Southeast  Level FlightAware Approximate
Mon 09:39:00 AM 38.6589 -82.6369 127° Southeast  Level FlightAware Approximate
Mon 09:40:00 AM 38.6384 -82.6026 127° Southeast  Level FlightAware Approximate
Mon 09:41:00 AM 38.6179 -82.5683 127° Southeast  Level FlightAware Approximate
Mon 09:42:00 AM 38.5974 -82.5339 127° Southeast  Level FlightAware Approximate
Mon 09:43:00 AM 38.5769 -82.4996 127° Southeast  Level FlightAware Approximate
Mon 09:44:00 AM 38.5564 -82.4653 127° Southeast  Level FlightAware Approximate
Mon 09:45:00 AM 38.5359 -82.4311 127° Southeast  Level FlightAware Approximate
Mon 09:46:00 AM 38.5153 -82.3969 127° Southeast  Level FlightAware Approximate
Mon 09:47:00 AM 38.4948 -82.3626 127° Southeast  Level FlightAware Approximate
Mon 09:48:00 AM 38.4742 -82.3284 128° Southeast  Level FlightAware Approximate
Mon 09:49:00 AM 38.4537 -82.2942 128° Southeast  Level FlightAware Approximate
Mon 09:50:00 AM 38.4331 -82.2601 128° Southeast  Level FlightAware Approximate
Mon 09:51:00 AM 38.4125 -82.2259 128° Southeast  Level FlightAware Approximate
Mon 09:52:00 AM 38.3919 -82.1918 128° Southeast  Level FlightAware Approximate
Mon 09:53:00 AM 38.3713 -82.1577 128° Southeast  Level FlightAware Approximate
Mon 09:54:00 AM 38.3503 -82.1240 129° Southeast  Level FlightAware Approximate
Mon 09:55:00 AM 38.3292 -82.0904 129° Southeast  Level FlightAware Approximate
Mon 09:56:00 AM 38.3081 -82.0569 129° Southeast  Level FlightAware Approximate
Mon 09:57:00 AM 38.2869 -82.0233 129° Southeast  Level FlightAware Approximate
Mon 09:58:00 AM 38.2658 -81.9898 129° Southeast  Level FlightAware Approximate
Mon 09:59:00 AM 38.2446 -81.9563 129° Southeast  Level FlightAware Approximate
Mon 10:00:00 AM 38.2234 -81.9229 129° Southeast  Level FlightAware Approximate
Mon 10:01:00 AM 38.2023 -81.8894 129° Southeast  Level FlightAware Approximate
Mon 10:02:00 AM 38.1811 -81.8560 129° Southeast  Level FlightAware Approximate
Mon 10:03:00 AM 38.1599 -81.8226 129° Southeast  Level FlightAware Approximate
Mon 10:04:00 AM 38.1387 -81.7892 129° Southeast  Level FlightAware Approximate
Mon 10:05:00 AM 38.1175 -81.7558 129° Southeast  Level FlightAware Approximate
Mon 10:06:00 AM 38.0962 -81.7224 129° Southeast  Level FlightAware Approximate
Mon 10:07:00 AM 38.0750 -81.6891 129° Southeast  Level FlightAware Approximate
Mon 10:08:00 AM 38.0538 -81.6558 129° Southeast  Level FlightAware Approximate
Mon 10:09:00 AM 38.0325 -81.6225 129° Southeast  Level FlightAware Approximate
Mon 10:10:00 AM 38.0112 -81.5892 129° Southeast  Level FlightAware Approximate
Mon 10:11:00 AM 37.9900 -81.5559 129° Southeast  Level FlightAware Approximate
Mon 10:12:00 AM 37.9687 -81.5227 129° Southeast  Level FlightAware Approximate
Mon 10:13:00 AM 37.9474 -81.4895 129° Southeast  Level FlightAware Approximate
Mon 10:14:00 AM 37.9261 -81.4563 129° Southeast  Level FlightAware Approximate
Mon 10:15:00 AM 37.9048 -81.4231 129° Southeast  Level FlightAware Approximate
Mon 10:16:00 AM 37.8835 -81.3899 129° Southeast  Level FlightAware Approximate
Mon 10:17:00 AM 37.8621 -81.3568 129° Southeast  Level FlightAware Approximate
Mon 10:18:00 AM 37.8408 -81.3237 129° Southeast  Level FlightAware Approximate
Mon 10:19:00 AM 37.8195 -81.2906 129° Southeast  Level FlightAware Approximate
Mon 10:20:00 AM 37.7981 -81.2575 129° Southeast  Level FlightAware Approximate
Mon 10:21:00 AM 37.7767 -81.2244 129° Southeast  Level FlightAware Approximate
Mon 10:22:00 AM 37.7554 -81.1913 129° Southeast  Level FlightAware Approximate
Mon 10:23:00 AM 37.7340 -81.1583 129° Southeast  Level FlightAware Approximate
Mon 10:24:00 AM 37.7126 -81.1253 129° Southeast  Level FlightAware Approximate
Mon 10:25:00 AM 37.6912 -81.0923 129° Southeast  Level FlightAware Approximate
Mon 10:26:00 AM 37.6698 -81.0593 129° Southeast  Level FlightAware Approximate
Mon 10:27:00 AM 37.6484 -81.0264 129° Southeast  Level FlightAware Approximate
Mon 10:28:00 AM 37.6269 -80.9935 129° Southeast  Level FlightAware Approximate
Mon 10:29:00 AM 37.6055 -80.9605 129° Southeast  Level FlightAware Approximate
Mon 10:30:00 AM 37.5840 -80.9277 129° Southeast  Level FlightAware Approximate
Mon 10:31:00 AM 37.5626 -80.8948 129° Southeast  Level FlightAware Approximate
Mon 10:32:00 AM 37.5411 -80.8619 129° Southeast  Level FlightAware Approximate
Mon 10:33:00 AM 37.5219 -80.8270 122° Southeast  Level FlightAware Approximate
Mon 10:34:00 AM 37.5002 -80.7946 133° Southeast  Level FlightAware Approximate
Mon 10:35:00 AM 37.4770 -80.7637 133° Southeast  Level FlightAware Approximate
Mon 10:36:00 AM 37.4538 -80.7328 133° Southeast  Level FlightAware Approximate
Mon 10:37:00 AM 37.4306 -80.7019 133° Southeast  Level FlightAware Approximate
Mon 10:38:00 AM 37.4081 -80.6702 129° Southeast  Level FlightAware Approximate
Mon 10:39:00 AM 37.3867 -80.6374 129° Southeast  Level FlightAware Approximate
Mon 10:40:00 AM 37.3653 -80.6046 129° Southeast  Level FlightAware Approximate
Mon 10:41:00 AM 37.3439 -80.5718 129° Southeast  Level FlightAware Approximate
Mon 10:42:00 AM 37.3224 -80.5390 129° Southeast  Level FlightAware Approximate
Mon 10:43:00 AM 37.3010 -80.5062 129° Southeast  Level FlightAware Approximate
Mon 10:44:00 AM 37.2795 -80.4735 129° Southeast  Level FlightAware Approximate
Mon 10:45:00 AM 37.2581 -80.4407 129° Southeast  Level FlightAware Approximate
Mon 10:46:00 AM 37.2366 -80.4080 130° Southeast  Level FlightAware Approximate
Mon 10:47:00 AM 37.2151 -80.3753 130° Southeast  Level FlightAware Approximate
Mon 10:48:00 AM 37.1936 -80.3427 130° Southeast  Level FlightAware Approximate
Mon 10:49:00 AM 37.1721 -80.3100 130° Southeast  Level FlightAware Approximate
Mon 10:50:00 AM 37.1506 -80.2774 130° Southeast  Level FlightAware Approximate
Mon 10:51:00 AM 37.1291 -80.2447 130° Southeast  Level FlightAware Approximate
Mon 10:52:00 AM 37.1075 -80.2121 130° Southeast  Level FlightAware Approximate
Mon 10:53:00 AM 37.0860 -80.1796 130° Southeast  Level FlightAware Approximate
Mon 10:54:00 AM 37.0644 -80.1470 130° Southeast  Level FlightAware Approximate
Mon 10:55:00 AM 37.0429 -80.1144 130° Southeast  Level FlightAware Approximate
Mon 10:56:00 AM 37.0213 -80.0819 130° Southeast  Level FlightAware Approximate
Mon 10:57:00 AM 36.9997 -80.0494 130° Southeast  Level FlightAware Approximate
Mon 10:58:00 AM 36.9781 -80.0169 130° Southeast  Level FlightAware Approximate
Mon 10:59:00 AM 36.9565 -79.9845 130° Southeast  Level FlightAware Approximate
Mon 11:00:00 AM 36.9349 -79.9520 130° Southeast  Level FlightAware Approximate
Mon 11:01:00 AM 36.9133 -79.9196 130° Southeast  Level FlightAware Approximate
Mon 11:02:00 AM 36.8917 -79.8872 130° Southeast  Level FlightAware Approximate
Mon 11:03:00 AM 36.8701 -79.8548 130° Southeast  Level FlightAware Approximate
Mon 11:04:00 AM 36.8484 -79.8224 130° Southeast  Level FlightAware Approximate
Mon 11:05:00 AM 36.8268 -79.7900 130° Southeast  Level FlightAware Approximate
Mon 11:06:00 AM 36.8051 -79.7577 130° Southeast  Level FlightAware Approximate
Mon 11:07:00 AM 36.7832 -79.7256 131° Southeast  Level FlightAware Approximate
Mon 11:08:00 AM 36.7612 -79.6937 131° Southeast  Level FlightAware Approximate
Mon 11:09:00 AM 36.7392 -79.6617 131° Southeast  Level FlightAware Approximate
Mon 11:10:00 AM 36.7172 -79.6298 131° Southeast  Level FlightAware Approximate
Mon 11:11:00 AM 36.6951 -79.5979 131° Southeast  Level FlightAware Approximate
Mon 11:12:00 AM 36.6731 -79.5661 131° Southeast  Level FlightAware Approximate
Mon 11:13:00 AM 36.6510 -79.5342 131° Southeast  Level FlightAware Approximate
Mon 11:14:00 AM 36.6289 -79.5024 131° Southeast  Level FlightAware Approximate
Mon 11:15:00 AM 36.6069 -79.4706 131° Southeast  Level FlightAware Approximate
Mon 11:16:00 AM 36.5848 -79.4388 131° Southeast  Level FlightAware Approximate
Mon 11:17:00 AM 36.5627 -79.4070 131° Southeast  Level FlightAware Approximate
Mon 11:18:00 AM 36.5406 -79.3752 131° Southeast  Level FlightAware Approximate
Mon 11:19:00 AM 36.5185 -79.3435 131° Southeast  Level FlightAware Approximate
Mon 11:20:00 AM 36.4964 -79.3117 131° Southeast  Level FlightAware Approximate
Mon 11:21:00 AM 36.4743 -79.2800 131° Southeast  Level FlightAware Approximate
Mon 11:22:00 AM 36.4521 -79.2483 131° Southeast  Level FlightAware Approximate
Mon 11:23:00 AM 36.4300 -79.2167 131° Southeast  Level FlightAware Approximate
Mon 11:24:00 AM 36.4078 -79.1850 131° Southeast  Level FlightAware Approximate
Mon 11:25:00 AM 36.3857 -79.1534 131° Southeast  Level FlightAware Approximate
Mon 11:26:00 AM 36.3674 -79.1182 122° Southeast  Level FlightAware Approximate
Mon 11:27:00 AM 36.3496 -79.0826 122° Southeast  Level FlightAware Approximate
Mon 11:28:00 AM 36.3311 -79.0478 141° Southeast  Level FlightAware Approximate
Mon 11:29:00 AM 36.3070 -79.0188 130° Southeast  Level FlightAware Approximate
Mon 11:30:00 AM 36.2854 -78.9865 130° Southeast  Level FlightAware Approximate
Mon 11:31:00 AM 36.2833 -78.9833 130° Southeast  Level FlightAware Approximate
Mon 11:32:00 AM 36.2846 -78.9846 130° Southeast  Level Estimated
Mon 11:33:00 AM 36.2833 -78.9833 130° Southeast  Level FlightAware Approximate
Mon 11:34:00 AM 36.2846 -78.9846 130° Southeast  Level Estimated
Mon 11:35:00 AM 36.2833 -78.9833 130° Southeast  Level FlightAware Approximate
Mon 11:36:00 AM 36.2846 -78.9846 130° Southeast  Level Estimated
Mon 11:37:00 AM 36.2833 -78.9833 130° Southeast  Level FlightAware Approximate
Mon 11:38:00 AM 36.2846 -78.9846 130° Southeast  Level Estimated
Mon 11:39:00 AM 36.2833 -78.9833 130° Southeast  Level FlightAware Approximate
Mon 11:40:00 AM 36.2846 -78.9846 130° Southeast  Level Estimated
Mon 11:41:00 AM 36.2833 -78.9833 130° Southeast  Level FlightAware Approximate
Mon 11:42:00 AM 36.2846 -78.9846 130° Southeast  Level Estimated
Mon 11:43:00 AM 36.2833 -78.9833 130° Southeast  Level FlightAware Approximate
Mon 11:44:00 AM 36.2846 -78.9846 130° Southeast  Level Estimated
Mon 11:45:00 AM 36.2833 -78.9833 130° Southeast  Level FlightAware Approximate
Mon 11:46:00 AM 36.2846 -78.9846 130° Southeast  Level Estimated

Login

Don't have an account? Register now (free) for customized features, flight alerts, and more!